createdAt,value
2019-03-11T00:00:36.761Z,999.60
2019-03-11T00:01:36.752Z,999.56
2019-03-11T00:02:36.737Z,999.55
2019-03-11T00:03:36.729Z,999.60
2019-03-11T00:04:37.037Z,999.54
2019-03-11T00:05:36.709Z,999.51
2019-03-11T00:06:36.699Z,999.55
2019-03-11T00:07:36.691Z,999.51
2019-03-11T00:08:36.979Z,999.53
2019-03-11T00:09:36.667Z,999.52
2019-03-11T00:10:36.702Z,999.50
2019-03-11T00:11:36.649Z,999.45
2019-03-11T00:12:36.635Z,999.47
2019-03-11T00:13:36.625Z,999.51
2019-03-11T00:14:36.615Z,999.56
2019-03-11T00:15:36.901Z,999.55
2019-03-11T00:16:36.635Z,999.46
2019-03-11T00:17:36.584Z,999.48
2019-03-11T00:18:36.574Z,999.49
2019-03-11T00:19:36.571Z,999.49
2019-03-11T00:20:36.555Z,999.49
2019-03-11T00:21:36.543Z,999.43
2019-03-11T00:22:36.895Z,999.44
2019-03-11T00:23:36.521Z,999.46
2019-03-11T00:24:36.511Z,999.44
2019-03-11T00:25:36.502Z,999.31
2019-03-11T00:26:36.493Z,999.38
2019-03-11T00:27:36.481Z,999.38
2019-03-11T00:28:36.510Z,999.47
2019-03-11T00:29:36.772Z,999.41
2019-03-11T00:30:36.449Z,999.34
2019-03-11T00:31:36.440Z,999.35
2019-03-11T00:32:36.429Z,999.36
2019-03-11T00:33:36.421Z,999.38
2019-03-11T00:34:36.455Z,999.37
2019-03-11T00:35:36.400Z,999.40
2019-03-11T00:36:36.397Z,999.34
2019-03-11T00:37:36.379Z,999.37
2019-03-11T00:38:36.368Z,999.37
2019-03-11T00:39:36.358Z,999.40
2019-03-11T00:40:36.422Z,999.37
2019-03-11T00:41:36.337Z,999.34
2019-03-11T00:42:36.611Z,999.32
2019-03-11T00:43:36.317Z,999.33
2019-03-11T00:44:36.306Z,999.36
2019-03-11T00:45:36.296Z,999.37
2019-03-11T00:46:36.335Z,999.34
2019-03-11T00:47:36.275Z,999.42
2019-03-11T00:48:36.264Z,999.37
2019-03-11T00:49:36.563Z,999.39
2019-03-11T00:50:36.245Z,999.39
2019-03-11T00:51:36.236Z,999.43
2019-03-11T00:52:36.292Z,999.36
2019-03-11T00:53:36.214Z,999.38
2019-03-11T00:54:36.204Z,999.39
2019-03-11T00:55:36.194Z,999.47
2019-03-11T00:56:36.484Z,999.52
2019-03-11T00:57:36.173Z,999.49
2019-03-11T00:58:36.311Z,999.49
2019-03-11T00:59:36.153Z,999.43
2019-03-11T01:00:36.142Z,999.40
2019-03-11T01:01:36.135Z,999.42
2019-03-11T01:02:36.136Z,999.41
2019-03-11T01:03:36.395Z,999.46
2019-03-11T01:04:36.155Z,999.40
2019-03-11T01:05:36.094Z,999.39
2019-03-11T01:06:36.087Z,999.37
2019-03-11T01:07:36.071Z,999.39
2019-03-11T01:08:36.061Z,999.40
2019-03-11T01:09:36.050Z,999.38
2019-03-11T01:10:36.400Z,999.41
2019-03-11T01:11:36.029Z,999.40
2019-03-11T01:12:36.019Z,999.39
2019-03-11T01:13:36.015Z,999.38
2019-03-11T01:14:36.152Z,999.40
2019-03-11T01:15:35.990Z,999.35
2019-03-11T01:16:36.379Z,999.35
2019-03-11T01:17:36.285Z,999.40
2019-03-11T01:18:36.031Z,999.39
2019-03-11T01:19:35.953Z,999.33
2019-03-11T01:20:35.934Z,999.27
2019-03-11T01:21:35.929Z,999.31
2019-03-11T01:22:35.960Z,999.24
2019-03-11T01:23:35.916Z,999.27
2019-03-11T01:24:36.201Z,999.22
2019-03-11T01:25:35.888Z,999.26
2019-03-11T01:26:35.873Z,999.15
2019-03-11T01:27:35.862Z,999.13
2019-03-11T01:28:35.896Z,999.15
2019-03-11T01:29:35.853Z,999.19
2019-03-11T01:30:35.831Z,999.11
2019-03-11T01:31:36.118Z,999.14
2019-03-11T01:32:35.814Z,999.15
2019-03-11T01:33:35.802Z,999.11
2019-03-11T01:34:35.874Z,999.08
2019-03-11T01:35:35.779Z,999.10
2019-03-11T01:36:35.770Z,999.11
2019-03-11T01:37:35.762Z,999.10
2019-03-11T01:38:36.053Z,999.09
2019-03-11T01:39:35.739Z,998.99
2019-03-11T01:40:35.770Z,999.04
2019-03-11T01:41:35.719Z,999.01
2019-03-11T01:42:35.705Z,999.01
2019-03-11T01:43:35.696Z,999.00
2019-03-11T01:44:35.687Z,998.94
2019-03-11T01:45:35.959Z,998.94
2019-03-11T01:46:35.710Z,998.95
2019-03-11T01:47:35.654Z,998.93
2019-03-11T01:48:35.642Z,998.88
2019-03-11T01:49:35.633Z,998.98
2019-03-11T01:50:35.621Z,998.91
2019-03-11T01:51:35.614Z,998.82
2019-03-11T01:52:36.201Z,998.89
2019-03-11T01:53:35.589Z,999.02
2019-03-11T01:54:35.609Z,999.03
2019-03-11T01:55:35.570Z,999.00
2019-03-11T01:56:35.557Z,998.92
2019-03-11T01:57:35.547Z,998.87
2019-03-11T01:58:35.577Z,998.86
2019-03-11T01:59:35.836Z,998.90
2019-03-11T02:00:35.519Z,998.95
2019-03-11T02:01:35.579Z,998.85
2019-03-11T02:02:35.501Z,998.85
2019-03-11T02:03:35.488Z,998.84
2019-03-11T02:04:35.548Z,998.89
2019-03-11T02:05:35.759Z,998.93
2019-03-11T02:06:35.558Z,998.90
2019-03-11T02:07:35.445Z,998.98
2019-03-11T02:08:35.440Z,998.92
2019-03-11T02:09:35.434Z,998.87
2019-03-11T02:10:35.535Z,998.96
2019-03-11T02:11:35.410Z,998.89
2019-03-11T02:12:35.393Z,998.87
2019-03-11T02:13:35.397Z,998.96
2019-03-11T02:14:35.407Z,998.98
2019-03-11T02:15:35.379Z,998.98
2019-03-11T02:16:35.401Z,998.94
2019-03-11T02:17:35.634Z,998.95
2019-03-11T02:18:35.332Z,998.87
2019-03-11T02:19:35.320Z,999.04
2019-03-11T02:20:35.308Z,999.05
2019-03-11T02:21:35.301Z,998.97
2019-03-11T02:22:35.343Z,998.86
2019-03-11T02:23:35.280Z,998.89
2019-03-11T02:24:35.268Z,998.72
2019-03-11T02:25:35.284Z,998.69
2019-03-11T02:26:35.246Z,998.65
2019-03-11T02:27:35.250Z,998.66
2019-03-11T02:28:35.300Z,998.72
2019-03-11T02:29:35.522Z,998.79
2019-03-11T02:30:35.209Z,998.83
2019-03-11T02:31:35.196Z,998.77
2019-03-11T02:32:35.187Z,998.79
2019-03-11T02:33:35.174Z,998.84
2019-03-11T02:34:35.215Z,998.78
2019-03-11T02:35:35.160Z,998.77
2019-03-11T02:36:35.143Z,998.76
2019-03-11T02:37:35.136Z,998.71
2019-03-11T02:38:35.124Z,998.77
2019-03-11T02:39:35.113Z,998.74
2019-03-11T02:40:36.035Z,998.74
2019-03-11T02:41:35.094Z,998.72
2019-03-11T02:42:35.370Z,998.68
2019-03-11T02:43:35.678Z,998.67
2019-03-11T02:44:35.061Z,998.67
2019-03-11T02:45:35.056Z,998.66
2019-03-11T02:46:35.438Z,998.70
2019-03-11T02:47:35.032Z,998.71
2019-03-11T02:48:35.021Z,998.65
2019-03-11T02:49:35.315Z,998.59
2019-03-11T02:50:34.999Z,998.67
2019-03-11T02:51:34.992Z,998.66
2019-03-11T02:52:35.109Z,998.66
2019-03-11T02:53:35.662Z,998.60
2019-03-11T02:54:34.960Z,998.61
2019-03-11T02:55:34.950Z,998.57
2019-03-11T02:56:35.233Z,998.58
2019-03-11T02:57:34.928Z,998.55
2019-03-11T02:58:35.045Z,998.58
2019-03-11T02:59:34.908Z,998.54
2019-03-11T03:01:56.214Z,998.51
2019-03-11T03:02:55.682Z,998.54
2019-03-11T03:03:55.665Z,998.49
2019-03-11T03:04:55.655Z,998.51
2019-03-11T03:05:55.645Z,998.57
2019-03-11T03:06:55.635Z,998.53
2019-03-11T03:07:55.659Z,998.54
2019-03-11T03:08:55.913Z,998.62
2019-03-11T03:09:55.605Z,998.57
2019-03-11T03:10:55.594Z,998.63
2019-03-11T03:11:55.583Z,998.69
2019-03-11T03:12:55.589Z,998.68
2019-03-11T03:13:55.599Z,998.64
2019-03-11T03:14:55.554Z,998.66
2019-03-11T03:15:55.829Z,998.66
2019-03-11T03:16:55.540Z,998.64
2019-03-11T03:17:55.523Z,998.61
2019-03-11T03:18:55.515Z,998.62
2019-03-11T03:19:55.553Z,998.54
2019-03-11T03:20:55.508Z,998.55
2019-03-11T03:21:55.483Z,998.52
2019-03-11T03:22:55.762Z,998.51
2019-03-11T03:23:55.463Z,998.53
2019-03-11T03:24:55.454Z,998.54
2019-03-11T03:25:55.500Z,998.53
2019-03-11T03:26:55.453Z,998.54
2019-03-11T03:27:55.584Z,998.52
2019-03-11T03:28:55.413Z,998.57
2019-03-11T03:29:55.713Z,998.60
2019-03-11T03:30:55.416Z,998.59
2019-03-11T03:31:55.422Z,998.54
2019-03-11T03:32:55.376Z,998.58
2019-03-11T03:33:55.362Z,998.66
2019-03-11T03:34:55.359Z,998.61
2019-03-11T03:35:55.342Z,998.63
2019-03-11T03:36:55.633Z,998.59
2019-03-11T03:37:55.401Z,998.64
2019-03-11T03:38:55.312Z,998.66
2019-03-11T03:39:55.306Z,998.63
2019-03-11T03:40:55.291Z,998.71
2019-03-11T03:41:55.282Z,998.69
2019-03-11T03:42:55.482Z,998.76
2019-03-11T03:43:55.585Z,998.72
2019-03-11T03:44:55.295Z,998.68
2019-03-11T03:45:55.256Z,998.64
2019-03-11T03:46:55.230Z,998.74
2019-03-11T03:47:55.221Z,998.65
2019-03-11T03:48:55.221Z,998.68
2019-03-11T03:49:55.237Z,998.73
2019-03-11T03:50:55.477Z,998.75
2019-03-11T03:51:55.180Z,998.69
2019-03-11T03:52:55.171Z,998.71
2019-03-11T03:53:55.188Z,998.77
2019-03-11T03:54:55.150Z,998.67
2019-03-11T03:55:55.437Z,998.69
2019-03-11T03:56:55.145Z,998.70
2019-03-11T03:57:55.423Z,998.72
2019-03-11T03:58:55.138Z,998.71
2019-03-11T03:59:55.153Z,998.69
2019-03-11T04:00:55.089Z,998.74
2019-03-11T04:01:55.116Z,998.72
2019-03-11T04:02:55.071Z,998.71
2019-03-11T04:03:55.797Z,998.71
2019-03-11T04:04:55.337Z,998.71
2019-03-11T04:05:55.037Z,998.73
2019-03-11T04:06:55.049Z,998.73
2019-03-11T04:07:55.054Z,998.73
2019-03-11T04:08:55.006Z,998.71
2019-03-11T04:09:54.996Z,998.75
2019-03-11T04:10:54.999Z,998.70
2019-03-11T04:11:55.263Z,998.71
2019-03-11T04:12:54.968Z,998.78
2019-03-11T04:13:55.840Z,998.75
2019-03-11T04:14:55.849Z,998.74
2019-03-11T04:15:54.948Z,998.65
2019-03-11T04:16:54.928Z,998.69
2019-03-11T04:17:54.917Z,998.67
2019-03-11T04:18:55.269Z,998.64
2019-03-11T04:19:55.815Z,998.63
2019-03-11T04:20:54.886Z,998.66
2019-03-11T04:21:55.750Z,998.66
2019-03-11T04:22:54.865Z,998.66
2019-03-11T04:23:54.854Z,998.67
2019-03-11T04:24:54.845Z,998.68
2019-03-11T04:25:55.877Z,998.69
2019-03-11T04:26:54.841Z,998.75
2019-03-11T04:27:54.815Z,998.70
2019-03-11T04:28:54.805Z,998.74
2019-03-11T04:29:54.793Z,998.72
2019-03-11T04:30:54.784Z,998.76
2019-03-11T04:31:55.129Z,998.77
2019-03-11T04:32:54.765Z,998.74
2019-03-11T04:33:54.753Z,998.68
2019-03-11T04:34:54.744Z,998.68
2019-03-11T04:35:55.168Z,998.72
2019-03-11T04:36:54.723Z,998.70
2019-03-11T04:37:54.830Z,998.70
2019-03-11T04:38:55.010Z,998.80
2019-03-11T04:39:54.693Z,998.69
2019-03-11T04:40:54.684Z,998.71
2019-03-11T04:41:54.678Z,998.71
2019-03-11T04:42:54.662Z,998.72
2019-03-11T04:43:54.693Z,998.63
2019-03-11T04:44:54.641Z,998.71
2019-03-11T04:45:54.919Z,998.73
2019-03-11T04:46:54.623Z,998.71
2019-03-11T04:47:54.610Z,998.79
2019-03-11T04:48:54.604Z,998.74
2019-03-11T04:49:54.743Z,998.78
2019-03-11T04:50:54.588Z,998.76
2019-03-11T04:51:54.568Z,998.75
2019-03-11T04:52:54.874Z,998.77
2019-03-11T04:53:54.547Z,998.79
2019-03-11T04:54:54.536Z,998.78
2019-03-11T04:55:54.566Z,998.77
2019-03-11T04:56:54.517Z,998.82
2019-03-11T04:57:54.510Z,998.78
2019-03-11T04:58:54.493Z,998.84
2019-03-11T04:59:54.793Z,998.80
2019-03-11T05:00:54.478Z,998.90
2019-03-11T05:01:54.502Z,998.85
2019-03-11T05:02:54.461Z,998.87
2019-03-11T05:03:54.444Z,998.82
2019-03-11T05:04:54.430Z,998.88
2019-03-11T05:05:54.421Z,998.88
2019-03-11T05:06:55.449Z,998.91
2019-03-11T05:07:54.705Z,998.87
2019-03-11T05:08:54.388Z,998.87
2019-03-11T05:09:54.380Z,998.94
2019-03-11T05:10:54.371Z,998.95
2019-03-11T05:11:54.360Z,998.93
2019-03-11T05:12:54.350Z,998.90
2019-03-11T05:13:54.741Z,998.95
2019-03-11T05:14:54.327Z,998.94
2019-03-11T05:15:54.327Z,998.94
2019-03-11T05:16:54.326Z,998.90
2019-03-11T05:17:54.294Z,998.93
2019-03-11T05:18:54.285Z,998.95
2019-03-11T05:19:54.323Z,998.93
2019-03-11T05:20:54.550Z,999.04
2019-03-11T05:21:54.254Z,999.00
2019-03-11T05:22:55.060Z,998.95
2019-03-11T05:23:54.232Z,998.96
2019-03-11T05:24:54.235Z,999.02
2019-03-11T05:25:54.530Z,999.00
2019-03-11T05:26:54.202Z,999.03
2019-03-11T05:27:54.647Z,999.06
2019-03-11T05:28:54.178Z,999.11
2019-03-11T05:29:54.179Z,999.02
2019-03-11T05:30:54.160Z,999.03
2019-03-11T05:31:54.185Z,999.03
2019-03-11T05:32:54.790Z,999.08
2019-03-11T05:33:54.780Z,999.03
2019-03-11T05:34:54.422Z,999.00
2019-03-11T05:35:54.110Z,999.00
2019-03-11T05:36:54.093Z,999.04
2019-03-11T05:37:55.007Z,999.02
2019-03-11T05:38:54.079Z,999.04
2019-03-11T05:39:54.061Z,998.97
2019-03-11T05:40:54.052Z,998.98
2019-03-11T05:41:55.240Z,999.10
2019-03-11T05:42:54.031Z,998.94
2019-03-11T05:43:54.432Z,998.98
2019-03-11T05:44:54.778Z,999.01
2019-03-11T05:45:53.999Z,998.96
2019-03-11T05:46:53.991Z,998.96
2019-03-11T05:47:53.977Z,999.01
2019-03-11T05:48:54.262Z,999.09
2019-03-11T05:49:54.092Z,999.01
2019-03-11T05:50:53.945Z,999.10
2019-03-11T05:51:53.935Z,999.06
2019-03-11T05:52:53.928Z,999.04
2019-03-11T05:53:53.920Z,999.05
2019-03-11T05:54:53.903Z,998.95
2019-03-11T05:55:54.646Z,999.08
2019-03-11T05:56:53.933Z,999.02
2019-03-11T05:57:53.873Z,999.05
2019-03-11T05:58:53.865Z,998.99
2019-03-11T05:59:53.854Z,999.01
2019-03-11T06:00:53.841Z,999.09
2019-03-11T06:01:55.263Z,999.13
2019-03-11T06:02:53.825Z,999.08
2019-03-11T06:03:53.812Z,999.08
2019-03-11T06:04:53.803Z,999.11
2019-03-11T06:05:53.790Z,999.14
2019-03-11T06:06:53.781Z,999.14
2019-03-11T06:07:54.074Z,999.09
2019-03-11T06:08:54.048Z,999.14
2019-03-11T06:09:53.751Z,999.13
2019-03-11T06:10:53.742Z,999.22
2019-03-11T06:11:53.727Z,999.08
2019-03-11T06:12:54.855Z,999.16
2019-03-11T06:13:53.758Z,999.10
2019-03-11T06:14:53.703Z,999.25
2019-03-11T06:15:54.143Z,999.23
2019-03-11T06:16:53.675Z,999.21
2019-03-11T06:17:53.667Z,999.30
2019-03-11T06:18:53.658Z,999.29
2019-03-11T06:19:53.737Z,999.28
2019-03-11T06:20:54.276Z,999.20
2019-03-11T06:21:53.633Z,999.24
2019-03-11T06:22:53.619Z,999.25
2019-03-11T06:23:53.604Z,999.26
2019-03-11T06:24:53.592Z,999.32
2019-03-11T06:25:53.635Z,999.25
2019-03-11T06:26:53.729Z,999.22
2019-03-11T06:27:54.038Z,999.24
2019-03-11T06:28:53.551Z,999.31
2019-03-11T06:29:53.539Z,999.31
2019-03-11T06:30:53.527Z,999.31
2019-03-11T06:31:53.567Z,999.28
2019-03-11T06:32:53.533Z,999.26
2019-03-11T06:33:53.495Z,999.24
2019-03-11T06:34:53.489Z,999.22
2019-03-11T06:35:54.269Z,999.29
2019-03-11T06:36:53.463Z,999.29
2019-03-11T06:37:53.600Z,999.35
2019-03-11T06:38:53.445Z,999.31
2019-03-11T06:39:53.929Z,999.31
2019-03-11T06:40:53.420Z,999.29
2019-03-11T06:41:53.411Z,999.33
2019-03-11T06:42:53.409Z,999.26
2019-03-11T06:43:53.428Z,999.30
2019-03-11T06:44:53.379Z,999.37
2019-03-11T06:45:53.370Z,999.40
2019-03-11T06:46:53.768Z,999.32
2019-03-11T06:47:53.394Z,999.34
2019-03-11T06:48:53.355Z,999.32
2019-03-11T06:49:53.376Z,999.32
2019-03-11T06:50:53.315Z,999.31
2019-03-11T06:51:53.306Z,999.42
2019-03-11T06:52:53.294Z,999.30
2019-03-11T06:53:53.571Z,999.32
2019-03-11T06:54:53.274Z,999.34
2019-03-11T06:55:53.316Z,999.40
2019-03-11T06:56:53.253Z,999.42
2019-03-11T06:57:53.245Z,999.40
2019-03-11T06:58:53.236Z,999.43
2019-03-11T06:59:53.224Z,999.48
2019-03-11T07:00:53.736Z,999.49
2019-03-11T07:01:53.243Z,999.49
2019-03-11T07:02:53.195Z,999.46
2019-03-11T07:03:53.233Z,999.47
2019-03-11T07:04:53.192Z,999.49
2019-03-11T07:05:53.184Z,999.54
2019-03-11T07:06:53.154Z,999.50
2019-03-11T07:07:53.570Z,999.49
2019-03-11T07:08:53.131Z,999.48
2019-03-11T07:09:53.124Z,999.48
2019-03-11T07:10:53.132Z,999.47
2019-03-11T07:11:53.101Z,999.58
2019-03-11T07:12:53.098Z,999.58
2019-03-11T07:13:53.151Z,999.60
2019-03-11T07:14:53.081Z,999.63
2019-03-11T07:15:53.063Z,999.57
2019-03-11T07:16:53.048Z,999.56
2019-03-11T07:17:53.041Z,999.58
2019-03-11T07:18:53.028Z,999.61
2019-03-11T07:19:53.865Z,999.62
2019-03-11T07:20:54.132Z,999.59
2019-03-11T07:21:52.999Z,999.59
2019-03-11T07:22:52.991Z,999.57
2019-03-11T07:23:54.165Z,999.56
2019-03-11T07:24:52.965Z,999.62
2019-03-11T07:25:53.167Z,999.61
2019-03-11T07:26:53.759Z,999.64
2019-03-11T07:27:53.306Z,999.57
2019-03-11T07:28:52.923Z,999.58
2019-03-11T07:29:52.915Z,999.63
2019-03-11T07:30:52.905Z,999.62
2019-03-11T07:31:52.955Z,999.63
2019-03-11T07:32:53.762Z,999.60
2019-03-11T07:33:53.713Z,999.62
2019-03-11T07:34:52.860Z,999.60
2019-03-11T07:35:53.724Z,999.58
2019-03-11T07:36:53.711Z,999.56
2019-03-11T07:37:53.896Z,999.57
2019-03-11T07:38:52.917Z,999.56
2019-03-11T07:39:52.857Z,999.60
2019-03-11T07:40:53.255Z,999.65
2019-03-11T07:41:52.864Z,999.60
2019-03-11T07:42:52.814Z,999.70
2019-03-11T07:43:52.812Z,999.58
2019-03-11T07:44:52.756Z,999.69
2019-03-11T07:45:52.744Z,999.70
2019-03-11T07:46:52.734Z,999.56
2019-03-11T07:47:53.209Z,999.67
2019-03-11T07:48:52.884Z,999.60
2019-03-11T07:49:52.780Z,999.61
2019-03-11T07:50:53.126Z,999.65
2019-03-11T07:51:52.683Z,999.73
2019-03-11T07:52:52.688Z,999.65
2019-03-11T07:53:52.664Z,999.69
2019-03-11T07:54:52.940Z,999.65
2019-03-11T07:55:52.695Z,999.65
2019-03-11T07:56:52.634Z,999.67
2019-03-11T07:57:52.630Z,999.63
2019-03-11T07:58:52.609Z,999.75
2019-03-11T07:59:52.602Z,999.71
2019-03-11T08:00:54.128Z,999.76
2019-03-11T08:01:52.632Z,999.63
2019-03-11T08:02:52.565Z,999.67
2019-03-11T08:03:52.553Z,999.71
2019-03-11T08:04:52.545Z,999.75
2019-03-11T08:05:52.533Z,999.73
2019-03-11T08:06:52.592Z,999.73
2019-03-11T08:07:53.093Z,999.78
2019-03-11T08:08:52.504Z,999.68
2019-03-11T08:09:52.493Z,999.76
2019-03-11T08:10:52.489Z,999.71
2019-03-11T08:11:52.469Z,999.78
2019-03-11T08:12:52.463Z,999.78
2019-03-11T08:13:52.506Z,999.71
2019-03-11T08:14:52.465Z,999.77
2019-03-11T08:15:52.453Z,999.85
2019-03-11T08:16:52.421Z,999.79
2019-03-11T08:17:52.405Z,999.82
2019-03-11T08:18:52.398Z,999.90
2019-03-11T08:19:52.760Z,999.85
2019-03-11T08:20:52.376Z,999.85
2019-03-11T08:21:52.363Z,999.86
2019-03-11T08:22:52.362Z,999.83
2019-03-11T08:23:52.420Z,999.87
2019-03-11T08:24:52.330Z,999.84
2019-03-11T08:25:52.479Z,999.90
2019-03-11T08:26:52.314Z,999.92
2019-03-11T08:27:52.305Z,999.89
2019-03-11T08:28:52.311Z,999.88
2019-03-11T08:29:52.281Z,999.91
2019-03-11T08:30:52.275Z,999.87
2019-03-11T08:31:52.308Z,999.92
2019-03-11T08:32:52.247Z,999.86
2019-03-11T08:33:52.530Z,999.89
2019-03-11T08:34:52.363Z,999.80
2019-03-11T08:35:52.216Z,999.77
2019-03-11T08:36:52.208Z,999.76
2019-03-11T08:37:52.739Z,999.73
2019-03-11T08:38:52.567Z,999.90
2019-03-11T08:39:52.176Z,999.84
2019-03-11T08:40:52.165Z,999.85
2019-03-11T08:41:52.179Z,999.82
2019-03-11T08:42:52.144Z,999.96
2019-03-11T08:43:52.444Z,999.88
2019-03-11T08:44:52.548Z,999.96
2019-03-11T08:45:52.122Z,999.92
2019-03-11T08:46:52.151Z,1000.03
2019-03-11T08:47:52.095Z,999.86
2019-03-11T08:48:52.105Z,1000.03
2019-03-11T08:49:52.120Z,1000.04
2019-03-11T08:50:52.059Z,1000.04
2019-03-11T08:51:52.580Z,999.95
2019-03-11T08:52:52.038Z,1000.02
2019-03-11T08:53:52.061Z,1000.12
2019-03-11T08:54:52.755Z,999.94
2019-03-11T08:55:52.062Z,1000.08
2019-03-11T08:56:52.025Z,1000.15
2019-03-11T08:57:52.760Z,1000.16
2019-03-11T08:58:52.391Z,1000.09
2019-03-11T08:59:52.143Z,1000.03
2019-03-11T09:00:51.954Z,1000.11
2019-03-11T09:01:52.021Z,1000.20
2019-03-11T09:02:52.745Z,1000.24
2019-03-11T09:03:51.925Z,1000.25
2019-03-11T09:04:51.911Z,1000.19
2019-03-11T09:05:52.262Z,1000.23
2019-03-11T09:06:51.894Z,1000.17
2019-03-11T09:07:51.928Z,1000.22
2019-03-11T09:08:51.870Z,1000.16
2019-03-11T09:09:51.901Z,1000.23
2019-03-11T09:10:51.966Z,1000.32
2019-03-11T09:11:51.839Z,1000.33
2019-03-11T09:12:53.695Z,1000.34
2019-03-11T09:13:51.814Z,1000.35
2019-03-11T09:14:51.827Z,1000.34
2019-03-11T09:15:53.073Z,1000.35
2019-03-11T09:16:51.806Z,1000.36
2019-03-11T09:17:51.841Z,1000.43
2019-03-11T09:18:51.922Z,1000.47
2019-03-11T09:19:52.694Z,1000.42
2019-03-11T09:20:51.751Z,1000.42
2019-03-11T09:21:51.730Z,1000.43
2019-03-11T09:22:51.734Z,1000.34
2019-03-11T09:23:51.714Z,1000.47
2019-03-11T09:24:51.975Z,1000.27
2019-03-11T09:25:51.722Z,1000.42
2019-03-11T09:26:52.011Z,1000.48
2019-03-11T09:27:51.674Z,1000.46
2019-03-11T09:28:51.659Z,1000.53
2019-03-11T09:29:51.646Z,1000.50
2019-03-11T09:30:51.701Z,1000.50
2019-03-11T09:31:51.628Z,1000.56
2019-03-11T09:32:51.624Z,1000.49
2019-03-11T09:33:52.081Z,1000.58
2019-03-11T09:34:51.609Z,1000.49
2019-03-11T09:35:52.237Z,1000.57
2019-03-11T09:36:52.761Z,1000.62
2019-03-11T09:37:51.571Z,1000.63
2019-03-11T09:38:51.552Z,1000.63
2019-03-11T09:39:51.543Z,1000.65
2019-03-11T09:40:51.875Z,1000.68
2019-03-11T09:41:51.520Z,1000.72
2019-03-11T09:42:51.553Z,1000.60
2019-03-11T09:43:51.510Z,1000.68
2019-03-11T09:44:51.493Z,1000.68
2019-03-11T09:45:51.491Z,1000.75
2019-03-11T09:46:51.469Z,1000.73
2019-03-11T09:47:51.885Z,1000.74
2019-03-11T09:48:51.495Z,1000.84
2019-03-11T09:49:51.443Z,1000.85
2019-03-11T09:50:51.430Z,1000.85
2019-03-11T09:51:51.422Z,1000.81
2019-03-11T09:52:51.407Z,1000.87
2019-03-11T09:53:51.399Z,1000.92
2019-03-11T09:54:51.740Z,1000.94
2019-03-11T09:55:51.377Z,1000.84
2019-03-11T09:56:51.372Z,1000.89
2019-03-11T09:57:51.365Z,1000.90
2019-03-11T09:58:51.346Z,1000.91
2019-03-11T09:59:51.335Z,1000.94
2019-03-11T10:00:51.378Z,1000.93
2019-03-11T10:01:51.316Z,1000.95
2019-03-11T10:02:53.159Z,1000.96
2019-03-11T10:03:51.296Z,1001.00
2019-03-11T10:04:51.284Z,1001.01
2019-03-11T10:05:51.284Z,1001.04
2019-03-11T10:06:51.305Z,1001.02
2019-03-11T10:07:51.700Z,1001.05
2019-03-11T10:08:51.247Z,1001.09
2019-03-11T10:09:51.235Z,1001.10
2019-03-11T10:10:51.242Z,1001.10
2019-03-11T10:11:51.218Z,1001.07
2019-03-11T10:12:51.282Z,1001.04
2019-03-11T10:13:51.211Z,1001.12
2019-03-11T10:14:51.198Z,1001.16
2019-03-11T10:15:51.175Z,1001.13
2019-03-11T10:16:51.164Z,1001.17
2019-03-11T10:17:51.161Z,1001.15
2019-03-11T10:18:51.195Z,1001.20
2019-03-11T10:19:51.705Z,1001.17
2019-03-11T10:20:51.149Z,1001.20
2019-03-11T10:21:51.256Z,1001.17
2019-03-11T10:22:51.810Z,1001.19
2019-03-11T10:23:51.351Z,1001.20
2019-03-11T10:24:51.438Z,1001.17
2019-03-11T10:25:51.148Z,1001.19
2019-03-11T10:26:51.062Z,1001.20
2019-03-11T10:27:51.062Z,1001.18
2019-03-11T10:28:51.056Z,1001.19
2019-03-11T10:29:51.033Z,1001.21
2019-03-11T10:30:51.093Z,1001.20
2019-03-11T10:31:51.012Z,1001.21
2019-03-11T10:32:51.016Z,1001.19
2019-03-11T10:33:50.991Z,1001.17
2019-03-11T10:34:51.038Z,1001.20
2019-03-11T10:35:51.090Z,1001.20
2019-03-11T10:36:51.028Z,1001.22
2019-03-11T10:37:51.288Z,1001.27
2019-03-11T10:38:51.177Z,1001.24
2019-03-11T10:39:50.929Z,1001.23
2019-03-11T10:40:50.919Z,1001.25
2019-03-11T10:41:50.906Z,1001.28
2019-03-11T10:42:50.948Z,1001.28
2019-03-11T10:43:50.910Z,1001.27
2019-03-11T10:44:51.317Z,1001.28
2019-03-11T10:45:50.869Z,1001.30
2019-03-11T10:46:50.906Z,1001.22
2019-03-11T10:47:50.848Z,1001.27
2019-03-11T10:48:50.923Z,1001.26
2019-03-11T10:49:50.851Z,1001.28
2019-03-11T10:50:50.999Z,1001.17
2019-03-11T10:51:51.134Z,1001.25
2019-03-11T10:52:50.792Z,1001.30
2019-03-11T10:53:50.782Z,1001.31
2019-03-11T10:54:50.828Z,1001.40
2019-03-11T10:55:50.761Z,1001.31
2019-03-11T10:56:50.750Z,1001.40
2019-03-11T10:57:50.741Z,1001.36
2019-03-11T10:58:51.208Z,1001.39
2019-03-11T10:59:50.768Z,1001.38
2019-03-11T11:00:50.767Z,1001.44
2019-03-11T11:01:50.699Z,1001.49
2019-03-11T11:02:50.696Z,1001.52
2019-03-11T11:03:50.678Z,1001.57
2019-03-11T11:04:50.680Z,1001.52
2019-03-11T11:05:50.988Z,1001.58
2019-03-11T11:06:50.716Z,1001.56
2019-03-11T11:07:50.644Z,1001.58
2019-03-11T11:08:50.624Z,1001.45
2019-03-11T11:09:50.614Z,1001.54
2019-03-11T11:10:50.605Z,1001.50
2019-03-11T11:11:50.591Z,1001.54
2019-03-11T11:12:50.958Z,1001.50
2019-03-11T11:13:50.612Z,1001.48
2019-03-11T11:14:50.640Z,1001.42
2019-03-11T11:15:50.665Z,1001.48
2019-03-11T11:16:50.701Z,1001.49
2019-03-11T11:17:50.704Z,1001.47
2019-03-11T11:18:50.678Z,1001.46
2019-03-11T11:19:51.020Z,1001.48
2019-03-11T11:20:50.500Z,1001.46
2019-03-11T11:21:50.614Z,1001.49
2019-03-11T11:22:50.533Z,1001.51
2019-03-11T11:23:50.468Z,1001.51
2019-03-11T11:24:50.530Z,1001.50
2019-03-11T11:25:50.475Z,1001.58
2019-03-11T11:26:52.087Z,1001.59
2019-03-11T11:27:50.519Z,1001.56
2019-03-11T11:28:50.431Z,1001.56
2019-03-11T11:29:50.413Z,1001.58
2019-03-11T11:30:50.457Z,1001.57
2019-03-11T11:31:50.398Z,1001.47
2019-03-11T11:32:50.395Z,1001.62
2019-03-11T11:33:50.745Z,1001.61
2019-03-11T11:34:50.355Z,1001.68
2019-03-11T11:35:50.461Z,1001.59
2019-03-11T11:36:50.459Z,1001.44
2019-03-11T11:37:50.353Z,1001.55
2019-03-11T11:38:50.316Z,1001.63
2019-03-11T11:39:50.334Z,1001.59
2019-03-11T11:40:50.666Z,1001.62
2019-03-11T11:41:50.411Z,1001.65
2019-03-11T11:42:50.419Z,1001.56
2019-03-11T11:43:50.406Z,1001.61
2019-03-11T11:44:52.121Z,1001.62
2019-03-11T11:45:50.245Z,1001.65
2019-03-11T11:46:50.336Z,1001.60
2019-03-11T11:47:50.571Z,1001.74
2019-03-11T11:48:50.550Z,1001.61
2019-03-11T11:49:50.450Z,1001.67
2019-03-11T11:50:50.220Z,1001.67
2019-03-11T11:51:50.198Z,1001.69
2019-03-11T11:52:50.171Z,1001.71
2019-03-11T11:53:50.174Z,1001.65
2019-03-11T11:54:50.201Z,1001.66
2019-03-11T11:55:57.550Z,1001.69
2019-03-11T11:56:51.715Z,1001.65
2019-03-11T11:57:50.124Z,1001.63
2019-03-11T11:58:50.734Z,1001.74
2019-03-11T11:59:54.306Z,1001.58
2019-03-11T12:00:51.622Z,1001.62
2019-03-11T12:01:50.768Z,1001.61
2019-03-11T12:02:50.082Z,1001.71
2019-03-11T12:03:50.461Z,1001.67
2019-03-11T12:04:50.756Z,1001.70
2019-03-11T12:05:50.186Z,1001.69
2019-03-11T12:06:50.286Z,1001.72
2019-03-11T12:07:50.068Z,1001.77
2019-03-11T12:08:50.227Z,1001.73
2019-03-11T12:09:50.095Z,1001.69
2019-03-11T12:10:50.046Z,1001.74
2019-03-11T12:11:49.973Z,1001.75
2019-03-11T12:12:50.439Z,1001.77
2019-03-11T12:13:50.210Z,1001.77
2019-03-11T12:14:50.022Z,1001.77
2019-03-11T12:15:50.002Z,1001.75
2019-03-11T12:16:49.949Z,1001.73
2019-03-11T12:17:49.910Z,1001.65
2019-03-11T12:18:50.438Z,1001.75
2019-03-11T12:19:49.891Z,1001.72
2019-03-11T12:20:49.886Z,1001.69
2019-03-11T12:21:49.871Z,1001.66
2019-03-11T12:22:49.967Z,1001.73